Time,TemperatureF,DewpointF,PressureIn,WindDirection,WindDirectionDegrees,WindSpeedMPH,WindSpeedGustMPH,Humidity,HourlyPrecipIn,Conditions,Clouds,dailyrainin,SoftwareType,DateUTC
2013-06-15 00:01:00,80.7,73.6,29.83,SW,217,0.0,0.0,79,0.00,,,0.00,Wunderground v.1.15,2013-06-15 04:01:00,
2013-06-15 00:06:00,80.9,73.8,29.83,SW,226,0.0,2.0,79,0.00,,,0.00,Wunderground v.1.15,2013-06-15 04:06:00,
2013-06-15 00:11:00,80.9,73.8,29.83,SW,226,0.0,3.0,79,0.00,,,0.00,Wunderground v.1.15,2013-06-15 04:11:00,
2013-06-15 00:16:00,80.9,73.8,29.84,SW,226,0.0,3.0,79,0.00,,,0.00,Wunderground v.1.15,2013-06-15 04:16:00,
2013-06-15 00:21:00,80.9,73.8,29.84,SW,226,0.0,0.0,79,0.00,,,0.00,Wunderground v.1.15,2013-06-15 04:21:00,
2013-06-15 00:27:00,80.7,73.6,29.84,SW,226,0.0,0.0,79,0.00,,,0.00,Wunderground v.1.15,2013-06-15 04:27:00,
2013-06-15 00:32:00,80.7,73.6,29.84,SW,226,0.0,0.0,79,0.00,,,0.00,Wunderground v.1.15,2013-06-15 04:32:00,
2013-06-15 00:37:00,80.7,73.6,29.84,SW,226,0.0,0.0,79,0.00,,,0.00,Wunderground v.1.15,2013-06-15 04:37:00,
2013-06-15 00:42:00,80.7,73.6,29.84,SW,226,0.0,0.0,79,0.00,,,0.00,Wunderground v.1.15,2013-06-15 04:42:00,
2013-06-15 00:47:00,80.9,73.8,29.83,SW,226,0.0,0.0,79,0.00,,,0.00,Wunderground v.1.15,2013-06-15 04:47:00,
2013-06-15 00:52:00,80.9,73.8,29.83,WSW,243,0.0,1.0,79,0.00,,,0.00,Wunderground v.1.15,2013-06-15 04:52:00,
2013-06-15 00:57:00,80.9,74.1,29.83,WSW,243,0.0,1.0,80,0.00,,,0.00,Wunderground v.1.15,2013-06-15 04:57:00,
2013-06-15 01:02:00,80.9,74.1,29.83,WSW,250,0.0,1.0,80,0.00,,,0.00,Wunderground v.1.15,2013-06-15 05:02:00,
2013-06-15 01:07:00,80.9,74.1,29.83,SW,223,0.0,6.0,80,0.00,,,0.00,Wunderground v.1.15,2013-06-15 05:07:00,
2013-06-15 01:12:00,80.9,74.1,29.83,SW,227,0.0,1.0,80,0.00,,,0.00,Wunderground v.1.15,2013-06-15 05:12:00,
2013-06-15 01:17:00,80.9,74.1,29.83,SSW,208,0.0,3.0,80,0.00,,,0.00,Wunderground v.1.15,2013-06-15 05:17:00,
2013-06-15 01:22:00,80.9,74.1,29.83,NW,308,0.0,0.0,80,0.00,,,0.00,Wunderground v.1.15,2013-06-15 05:22:00,
2013-06-15 01:27:00,80.9,74.1,29.83,SW,232,0.0,4.0,80,0.00,,,0.00,Wunderground v.1.15,2013-06-15 05:27:00,
2013-06-15 01:32:00,81.1,74.3,29.83,SW,216,0.0,8.0,80,0.00,,,0.00,Wunderground v.1.15,2013-06-15 05:32:00,
2013-06-15 01:37:00,81.1,74.3,29.83,WSW,253,0.0,8.0,80,0.00,,,0.00,Wunderground v.1.15,2013-06-15 05:37:00,
2013-06-15 01:42:00,81.1,74.3,29.83,SSW,203,0.0,5.0,80,0.00,,,0.00,Wunderground v.1.15,2013-06-15 05:42:00,
2013-06-15 01:47:00,81.1,74.3,29.83,SSW,206,1.0,5.0,80,0.00,,,0.00,Wunderground v.1.15,2013-06-15 05:47:00,
2013-06-15 01:52:00,80.9,74.1,29.83,WSW,248,0.0,5.0,80,0.00,,,0.00,Wunderground v.1.15,2013-06-15 05:52:00,
2013-06-15 01:57:00,80.9,74.1,29.83,SW,216,0.0,5.0,80,0.00,,,0.00,Wunderground v.1.15,2013-06-15 05:57:00,
2013-06-15 02:02:00,80.9,74.1,29.83,SW,216,0.0,1.0,80,0.00,,,0.00,Wunderground v.1.15,2013-06-15 06:02:00,
2013-06-15 02:07:00,80.7,74.0,29.83,SW,232,0.0,1.0,80,0.00,,,0.00,Wunderground v.1.15,2013-06-15 06:07:00,
2013-06-15 02:12:00,80.7,74.0,29.83,SW,223,0.0,0.0,80,0.00,,,0.00,Wunderground v.1.15,2013-06-15 06:12:00,
2013-06-15 02:17:00,80.7,74.0,29.83,South,185,0.0,5.0,80,0.00,,,0.00,Wunderground v.1.15,2013-06-15 06:17:00,
2013-06-15 02:22:00,80.7,74.0,29.83,WSW,253,0.0,0.0,80,0.00,,,0.00,Wunderground v.1.15,2013-06-15 06:22:00,
2013-06-15 02:27:00,80.7,74.0,29.83,WSW,257,0.0,6.0,80,0.00,,,0.00,Wunderground v.1.15,2013-06-15 06:27:00,
2013-06-15 02:32:00,80.7,74.0,29.82,SSW,202,0.0,1.0,80,0.00,,,0.00,Wunderground v.1.15,2013-06-15 06:32:00,
2013-06-15 02:37:00,80.7,74.0,29.82,WSW,244,0.0,6.0,80,0.00,,,0.00,Wunderground v.1.15,2013-06-15 06:37:00,
2013-06-15 02:42:00,80.7,74.0,29.82,NNW,332,0.0,1.0,80,0.00,,,0.00,Wunderground v.1.15,2013-06-15 06:42:00,
2013-06-15 02:47:00,80.5,73.8,29.82,SW,222,1.0,8.0,80,0.00,,,0.00,Wunderground v.1.15,2013-06-15 06:47:00,
2013-06-15 02:52:00,80.5,73.8,29.82,WSW,237,2.0,6.0,80,0.00,,,0.00,Wunderground v.1.15,2013-06-15 06:52:00,
2013-06-15 02:57:00,80.5,73.8,29.82,WSW,237,0.0,6.0,80,0.00,,,0.00,Wunderground v.1.15,2013-06-15 06:57:00,
2013-06-15 03:02:00,80.5,73.8,29.82,SW,227,0.0,0.0,80,0.00,,,0.00,Wunderground v.1.15,2013-06-15 07:02:00,
2013-06-15 03:07:00,80.3,73.6,29.82,SW,223,0.0,4.0,80,0.00,,,0.00,Wunderground v.1.15,2013-06-15 07:07:00,
2013-06-15 03:12:00,80.3,73.6,29.82,WSW,237,0.0,3.0,80,0.00,,,0.00,Wunderground v.1.15,2013-06-15 07:12:00,
2013-06-15 03:17:00,80.3,73.6,29.81,SW,236,0.0,3.0,80,0.00,,,0.00,Wunderground v.1.15,2013-06-15 07:17:00,
2013-06-15 03:22:00,80.3,73.9,29.81,WSW,248,0.0,-999.0,81,0.00,,,0.00,Wunderground v.1.15,2013-06-15 07:22:00,
2013-06-15 03:27:00,80.3,73.9,29.81,WSW,248,0.0,-999.0,81,0.00,,,0.00,Wunderground v.1.15,2013-06-15 07:27:00,
2013-06-15 03:32:00,80.1,73.7,29.81,SW,225,1.0,-999.0,81,0.00,,,0.00,Wunderground v.1.15,2013-06-15 07:32:00,
2013-06-15 03:37:00,80.1,73.7,29.81,SSW,203,0.0,-999.0,81,0.00,,,0.00,Wunderground v.1.15,2013-06-15 07:37:00,
2013-06-15 03:42:00,80.1,73.7,29.81,WSW,248,0.0,-999.0,81,0.00,,,0.00,Wunderground v.1.15,2013-06-15 07:42:00,
2013-06-15 03:47:00,80.1,73.7,29.81,WSW,248,0.0,-999.0,81,0.00,,,0.00,Wunderground v.1.15,2013-06-15 07:47:00,
2013-06-15 03:52:00,80.1,73.7,29.81,SW,225,0.0,-999.0,81,0.00,,,0.00,Wunderground v.1.15,2013-06-15 07:52:00,
2013-06-15 03:57:00,79.9,73.9,29.81,SW,225,1.0,-999.0,82,0.00,,,0.00,Wunderground v.1.15,2013-06-15 07:57:00,
2013-06-15 04:02:00,79.9,73.9,29.80,N/A,-737280,0.0,-999.0,82,0.00,,,0.00,Wunderground v.1.15,2013-06-15 08:02:00,
2013-06-15 04:07:00,79.9,73.9,29.80,SW,225,0.0,-999.0,82,0.00,,,0.00,Wunderground v.1.15,2013-06-15 08:07:00,
2013-06-15 04:12:00,79.9,73.9,29.80,SW,225,0.0,-999.0,82,0.00,,,0.00,Wunderground v.1.15,2013-06-15 08:12:00,
2013-06-15 04:17:00,79.9,73.9,29.81,SW,225,0.0,-999.0,82,0.00,,,0.00,Wunderground v.1.15,2013-06-15 08:17:00,
2013-06-15 04:22:00,79.9,73.9,29.81,N/A,-737280,0.0,-999.0,82,0.00,,,0.00,Wunderground v.1.15,2013-06-15 08:22:00,
2013-06-15 04:27:00,79.9,73.9,29.81,SSW,203,0.0,-999.0,82,0.00,,,0.00,Wunderground v.1.15,2013-06-15 08:27:00,
2013-06-15 04:32:00,79.8,73.8,29.81,N/A,-737280,0.0,-999.0,82,0.00,,,0.00,Wunderground v.1.15,2013-06-15 08:32:00,
2013-06-15 04:37:00,79.8,73.8,29.81,SW,225,0.0,-999.0,82,0.00,,,0.00,Wunderground v.1.15,2013-06-15 08:37:00,
2013-06-15 04:42:00,79.8,73.8,29.81,WSW,248,0.0,-999.0,82,0.00,,,0.00,Wunderground v.1.15,2013-06-15 08:42:00,
2013-06-15 04:47:00,79.8,73.8,29.81,SSW,203,0.0,-999.0,82,0.00,,,0.00,Wunderground v.1.15,2013-06-15 08:47:00,
2013-06-15 04:52:00,79.8,73.8,29.81,West,270,0.0,-999.0,82,0.00,,,0.00,Wunderground v.1.15,2013-06-15 08:52:00,
2013-06-15 04:57:00,79.8,73.8,29.81,North,0,0.0,-999.0,82,0.00,,,0.00,Wunderground v.1.15,2013-06-15 08:57:00,
2013-06-15 05:02:00,79.6,73.6,29.83,SSW,203,0.0,-999.0,82,0.00,,,0.00,Wunderground v.1.15,2013-06-15 09:02:00,
2013-06-15 05:07:00,79.6,73.6,29.83,NW,315,0.0,-999.0,82,0.00,,,0.00,Wunderground v.1.15,2013-06-15 09:07:00,
2013-06-15 05:12:00,79.6,73.6,29.83,WNW,293,0.0,-999.0,82,0.00,,,0.00,Wunderground v.1.15,2013-06-15 09:12:00,
2013-06-15 05:17:00,79.6,74.0,29.83,WSW,248,0.0,-999.0,83,0.00,,,0.00,Wunderground v.1.15,2013-06-15 09:17:00,
2013-06-15 05:22:00,79.6,74.0,29.83,WSW,248,0.0,-999.0,83,0.00,,,0.00,Wunderground v.1.15,2013-06-15 09:22:00,
2013-06-15 05:27:00,79.6,74.0,29.83,N/A,-737280,0.0,-999.0,83,0.00,,,0.00,Wunderground v.1.15,2013-06-15 09:27:00,
2013-06-15 05:32:00,79.6,74.0,29.83,SW,225,0.0,-999.0,83,0.00,,,0.00,Wunderground v.1.15,2013-06-15 09:32:00,
2013-06-15 05:37:00,79.6,74.0,29.83,N/A,-737280,0.0,-999.0,83,0.00,,,0.00,Wunderground v.1.15,2013-06-15 09:37:00,
2013-06-15 05:42:00,79.6,74.0,29.83,WSW,248,0.0,-999.0,83,0.00,,,0.00,Wunderground v.1.15,2013-06-15 09:42:00,
2013-06-15 05:47:00,79.6,74.0,29.83,N/A,-737280,0.0,-999.0,83,0.00,,,0.00,Wunderground v.1.15,2013-06-15 09:47:00,
2013-06-15 05:52:00,79.6,74.0,29.83,WSW,248,0.0,-999.0,83,0.00,,,0.00,Wunderground v.1.15,2013-06-15 09:52:00,
2013-06-15 05:57:00,79.6,74.0,29.83,N/A,-737280,0.0,-999.0,83,0.00,,,0.00,Wunderground v.1.15,2013-06-15 09:57:00,
2013-06-15 06:02:00,79.6,74.0,29.84,WSW,248,0.0,-999.0,83,0.00,,,0.00,Wunderground v.1.15,2013-06-15 10:02:00,
2013-06-15 06:07:00,79.6,74.0,29.84,N/A,-737280,0.0,-999.0,83,0.00,,,0.00,Wunderground v.1.15,2013-06-15 10:07:00,
2013-06-15 06:12:00,79.6,74.0,29.84,WNW,293,0.0,-999.0,83,0.00,,,0.00,Wunderground v.1.15,2013-06-15 10:12:00,
2013-06-15 06:17:00,79.6,74.0,29.86,N/A,-737280,0.0,-999.0,83,0.00,,,0.00,Wunderground v.1.15,2013-06-15 10:17:00,
2013-06-15 06:22:00,79.6,74.0,29.86,WSW,248,0.0,-999.0,83,0.00,,,0.00,Wunderground v.1.15,2013-06-15 10:22:00,
2013-06-15 06:27:00,79.6,74.0,29.86,WSW,248,0.0,-999.0,83,0.00,,,0.00,Wunderground v.1.15,2013-06-15 10:27:00,
2013-06-15 06:32:00,79.6,74.0,29.85,West,270,0.0,-999.0,83,0.00,,,0.00,Wunderground v.1.15,2013-06-15 10:32:00,
2013-06-15 06:37:00,79.6,74.0,29.85,SSW,203,0.0,-999.0,83,0.00,,,0.00,Wunderground v.1.15,2013-06-15 10:37:00,
2013-06-15 06:42:00,79.6,74.0,29.85,SSW,203,0.0,-999.0,83,0.00,,,0.00,Wunderground v.1.15,2013-06-15 10:42:00,
2013-06-15 06:47:00,79.6,74.0,29.84,SW,225,0.0,-999.0,83,0.00,,,0.00,Wunderground v.1.15,2013-06-15 10:47:00,
2013-06-15 06:52:00,79.6,74.0,29.84,SW,225,0.0,-999.0,83,0.00,,,0.00,Wunderground v.1.15,2013-06-15 10:52:00,
2013-06-15 06:57:00,79.6,74.0,29.84,SW,225,0.0,-999.0,83,0.00,,,0.00,Wunderground v.1.15,2013-06-15 10:57:00,
2013-06-15 07:02:00,79.6,74.0,29.85,WSW,248,0.0,-999.0,83,0.00,,,0.00,Wunderground v.1.15,2013-06-15 11:02:00,
2013-06-15 07:07:00,79.6,74.0,29.85,WSW,248,0.0,-999.0,83,0.00,,,0.00,Wunderground v.1.15,2013-06-15 11:07:00,
2013-06-15 07:12:00,79.6,74.0,29.85,WNW,293,0.0,-999.0,83,0.00,,,0.00,Wunderground v.1.15,2013-06-15 11:12:00,
2013-06-15 07:17:00,79.6,74.0,29.86,SW,225,0.0,-999.0,83,0.00,,,0.00,Wunderground v.1.15,2013-06-15 11:17:00,
2013-06-15 07:22:00,79.6,74.0,29.86,N/A,-737280,0.0,-999.0,83,0.00,,,0.00,Wunderground v.1.15,2013-06-15 11:22:00,
2013-06-15 07:27:00,79.6,74.0,29.86,N/A,-737280,0.0,-999.0,83,0.00,,,0.00,Wunderground v.1.15,2013-06-15 11:27:00,
2013-06-15 07:32:00,79.8,74.2,29.86,SSW,203,0.0,-999.0,83,0.00,,,0.00,Wunderground v.1.15,2013-06-15 11:32:00,
2013-06-15 07:37:00,79.8,74.2,29.86,SW,225,0.0,-999.0,83,0.00,,,0.00,Wunderground v.1.15,2013-06-15 11:37:00,
2013-06-15 07:42:00,79.8,74.2,29.86,WSW,248,0.0,-999.0,83,0.00,,,0.00,Wunderground v.1.15,2013-06-15 11:42:00,
2013-06-15 07:47:00,79.8,74.2,29.86,WSW,248,0.0,-999.0,83,0.00,,,0.00,Wunderground v.1.15,2013-06-15 11:47:00,
2013-06-15 07:52:00,79.8,74.2,29.86,N/A,-737280,0.0,-999.0,83,0.00,,,0.00,Wunderground v.1.15,2013-06-15 11:52:00,
2013-06-15 07:57:00,79.8,74.2,29.86,WSW,248,0.0,-999.0,83,0.00,,,0.00,Wunderground v.1.15,2013-06-15 11:57:00,
2013-06-15 08:02:00,79.8,74.2,29.88,N/A,-737280,0.0,-999.0,83,0.00,,,0.00,Wunderground v.1.15,2013-06-15 12:02:00,
2013-06-15 08:07:00,79.8,74.2,29.88,N/A,-737280,0.0,-999.0,83,0.00,,,0.00,Wunderground v.1.15,2013-06-15 12:07:00,
2013-06-15 08:12:00,79.9,74.3,29.88,N/A,-737280,0.0,-999.0,83,0.00,,,0.00,Wunderground v.1.15,2013-06-15 12:12:00,
2013-06-15 08:17:00,79.9,74.3,29.88,N/A,-737280,0.0,-999.0,83,0.00,,,0.00,Wunderground v.1.15,2013-06-15 12:17:00,
2013-06-15 08:22:00,79.9,74.3,29.88,N/A,-737280,0.0,-999.0,83,0.00,,,0.00,Wunderground v.1.15,2013-06-15 12:22:00,
2013-06-15 08:27:00,80.1,74.5,29.88,N/A,-737280,0.0,-999.0,83,0.00,,,0.00,Wunderground v.1.15,2013-06-15 12:27:00,
2013-06-15 08:32:00,80.1,74.5,29.88,N/A,-737280,0.0,-999.0,83,0.00,,,0.00,Wunderground v.1.15,2013-06-15 12:32:00,
2013-06-15 08:37:00,80.1,74.5,29.88,WSW,248,0.0,-999.0,83,0.00,,,0.00,Wunderground v.1.15,2013-06-15 12:37:00,
2013-06-15 08:42:00,80.1,74.5,29.88,WSW,248,0.0,-999.0,83,0.00,,,0.00,Wunderground v.1.15,2013-06-15 12:42:00,
2013-06-15 08:47:00,80.3,74.7,29.88,WSW,248,0.0,-999.0,83,0.00,,,0.00,Wunderground v.1.15,2013-06-15 12:47:00,
2013-06-15 08:52:00,80.3,74.7,29.88,N/A,-737280,0.0,-999.0,83,0.00,,,0.00,Wunderground v.1.15,2013-06-15 12:52:00,
2013-06-15 08:57:00,80.3,74.7,29.88,WSW,248,0.0,-999.0,83,0.00,,,0.00,Wunderground v.1.15,2013-06-15 12:57:00,
2013-06-15 09:02:00,80.5,74.9,29.89,WSW,248,0.0,-999.0,83,0.00,,,0.00,Wunderground v.1.15,2013-06-15 13:02:00,
2013-06-15 09:07:00,80.5,74.9,29.89,WSW,248,0.0,-999.0,83,0.00,,,0.00,Wunderground v.1.15,2013-06-15 13:07:00,
2013-06-15 09:12:00,80.7,75.1,29.89,N/A,-737280,0.0,-999.0,83,0.00,,,0.00,Wunderground v.1.15,2013-06-15 13:12:00,
2013-06-15 09:17:00,80.9,75.2,29.89,West,270,0.0,-999.0,83,0.00,,,0.00,Wunderground v.1.15,2013-06-15 13:17:00,
2013-06-15 09:22:00,80.9,75.2,29.89,West,270,0.0,-999.0,83,0.00,,,0.00,Wunderground v.1.15,2013-06-15 13:22:00,
2013-06-15 09:27:00,81.1,75.1,29.89,N/A,-737280,0.0,-999.0,82,0.00,,,0.00,Wunderground v.1.15,2013-06-15 13:27:00,
2013-06-15 09:32:00,81.2,75.2,29.90,West,270,0.0,-999.0,82,0.00,,,0.00,Wunderground v.1.15,2013-06-15 13:32:00,
2013-06-15 09:37:00,81.2,75.2,29.90,West,270,0.0,-999.0,82,0.00,,,0.00,Wunderground v.1.15,2013-06-15 13:37:00,
2013-06-15 09:42:00,81.4,75.4,29.90,West,270,0.0,-999.0,82,0.00,,,0.00,Wunderground v.1.15,2013-06-15 13:42:00,
2013-06-15 09:47:00,81.4,75.4,29.90,West,270,0.0,-999.0,82,0.00,,,0.00,Wunderground v.1.15,2013-06-15 13:47:00,
2013-06-15 09:52:00,81.6,75.6,29.90,N/A,-737280,0.0,-999.0,82,0.00,,,0.00,Wunderground v.1.15,2013-06-15 13:52:00,
2013-06-15 09:57:00,81.8,75.8,29.90,West,270,0.0,-999.0,82,0.00,,,0.00,Wunderground v.1.15,2013-06-15 13:57:00,
2013-06-15 10:02:00,82.0,76.0,29.90,N/A,-737280,0.0,-999.0,82,0.00,,,0.00,Wunderground v.1.15,2013-06-15 14:02:00,
2013-06-15 10:07:00,82.2,76.2,29.90,N/A,-737280,0.0,-999.0,82,0.00,,,0.00,Wunderground v.1.15,2013-06-15 14:07:00,
2013-06-15 10:12:00,82.4,76.3,29.90,West,270,0.0,-999.0,82,0.00,,,0.00,Wunderground v.1.15,2013-06-15 14:12:00,
2013-06-15 10:17:00,82.6,76.2,29.89,SSW,203,0.0,-999.0,81,0.00,,,0.00,Wunderground v.1.15,2013-06-15 14:17:00,
2013-06-15 10:22:00,82.8,76.4,29.89,SSW,203,0.0,-999.0,81,0.00,,,0.00,Wunderground v.1.15,2013-06-15 14:22:00,
2013-06-15 10:27:00,82.8,76.0,29.89,West,270,1.0,-999.0,80,0.00,,,0.00,Wunderground v.1.15,2013-06-15 14:27:00,
2013-06-15 10:32:00,83.0,76.2,29.90,SW,225,0.0,-999.0,80,0.00,,,0.00,Wunderground v.1.15,2013-06-15 14:32:00,
2013-06-15 10:37:00,83.2,76.4,29.90,West,270,0.0,-999.0,80,0.00,,,0.00,Wunderground v.1.15,2013-06-15 14:37:00,
2013-06-15 10:42:00,83.4,76.6,29.90,SW,225,1.0,-999.0,80,0.00,,,0.00,Wunderground v.1.15,2013-06-15 14:42:00,
2013-06-15 10:47:00,83.4,76.6,29.90,South,180,0.0,-999.0,80,0.00,,,0.00,Wunderground v.1.15,2013-06-15 14:47:00,
2013-06-15 10:52:00,83.4,76.6,29.90,SW,225,1.0,-999.0,80,0.00,,,0.00,Wunderground v.1.15,2013-06-15 14:52:00,
2013-06-15 10:57:00,83.6,76.8,29.90,West,270,1.0,-999.0,80,0.00,,,0.00,Wunderground v.1.15,2013-06-15 14:57:00,
2013-06-15 11:02:00,83.8,76.6,29.90,SW,225,1.0,-999.0,79,0.00,,,0.00,Wunderground v.1.15,2013-06-15 15:02:00,
2013-06-15 11:07:00,84.0,76.8,29.90,SW,225,1.0,-999.0,79,0.00,,,0.00,Wunderground v.1.15,2013-06-15 15:07:00,
2013-06-15 11:12:00,84.1,76.5,29.90,WSW,248,1.0,-999.0,78,0.00,,,0.00,Wunderground v.1.15,2013-06-15 15:12:00,
2013-06-15 11:17:00,84.1,76.5,29.91,West,270,1.0,-999.0,78,0.00,,,0.00,Wunderground v.1.15,2013-06-15 15:17:00,
2013-06-15 11:22:00,84.1,76.1,29.91,WNW,293,1.0,-999.0,77,0.00,,,0.00,Wunderground v.1.15,2013-06-15 15:22:00,
2013-06-15 11:27:00,84.1,76.1,29.91,WNW,293,0.0,-999.0,77,0.00,,,0.00,Wunderground v.1.15,2013-06-15 15:27:00,
2013-06-15 11:32:00,84.1,76.1,29.92,SW,225,0.0,-999.0,77,0.00,,,0.00,Wunderground v.1.15,2013-06-15 15:32:00,
2013-06-15 11:37:00,84.1,76.1,29.92,West,270,0.0,-999.0,77,0.00,,,0.00,Wunderground v.1.15,2013-06-15 15:37:00,
2013-06-15 11:42:00,84.0,76.0,29.92,West,270,0.0,-999.0,77,0.00,,,0.00,Wunderground v.1.15,2013-06-15 15:42:00,
2013-06-15 11:47:00,84.0,76.0,29.92,WNW,293,0.0,-999.0,77,0.00,,,0.00,Wunderground v.1.15,2013-06-15 15:47:00,
2013-06-15 11:52:00,84.0,76.0,29.92,WNW,293,0.0,-999.0,77,0.00,,,0.00,Wunderground v.1.15,2013-06-15 15:52:00,
2013-06-15 11:57:00,84.0,76.0,29.92,SW,225,0.0,-999.0,77,0.00,,,0.00,Wunderground v.1.15,2013-06-15 15:57:00,
2013-06-15 12:02:00,84.0,76.0,29.93,WNW,293,0.0,-999.0,77,0.00,,,0.00,Wunderground v.1.15,2013-06-15 16:02:00,
2013-06-15 12:07:00,84.1,76.1,29.93,South,180,0.0,-999.0,77,0.00,,,0.00,Wunderground v.1.15,2013-06-15 16:07:00,
2013-06-15 12:12:00,84.3,76.3,29.93,WNW,293,0.0,-999.0,77,0.00,,,0.00,Wunderground v.1.15,2013-06-15 16:12:00,
2013-06-15 12:17:00,84.5,76.1,29.93,WSW,248,0.0,-999.0,76,0.00,,,0.00,Wunderground v.1.15,2013-06-15 16:17:00,
2013-06-15 12:22:00,84.5,76.1,29.93,WSW,248,0.0,-999.0,76,0.00,,,0.00,Wunderground v.1.15,2013-06-15 16:22:00,
2013-06-15 12:27:00,84.7,76.3,29.93,WNW,293,0.0,-999.0,76,0.00,,,0.00,Wunderground v.1.15,2013-06-15 16:27:00,
2013-06-15 12:32:00,84.9,76.5,29.92,WNW,293,0.0,-999.0,76,0.00,,,0.00,Wunderground v.1.15,2013-06-15 16:32:00,
2013-06-15 12:37:00,85.3,76.9,29.92,WNW,293,1.0,-999.0,76,0.00,,,0.00,Wunderground v.1.15,2013-06-15 16:37:00,
2013-06-15 12:42:00,85.5,77.1,29.92,NW,315,1.0,-999.0,76,0.00,,,0.00,Wunderground v.1.15,2013-06-15 16:42:00,
2013-06-15 12:47:00,86.3,77.4,29.92,SSE,158,0.0,-999.0,75,0.00,,,0.00,Wunderground v.1.15,2013-06-15 16:47:00,
2013-06-15 12:52:00,86.7,77.4,29.92,West,270,1.0,-999.0,74,0.00,,,0.00,Wunderground v.1.15,2013-06-15 16:52:00,
2013-06-15 12:57:00,87.2,77.9,29.92,SW,225,1.0,-999.0,74,0.00,,,0.00,Wunderground v.1.15,2013-06-15 16:57:00,
2013-06-15 13:02:00,87.4,77.7,29.92,SW,225,0.0,-999.0,73,0.00,,,0.00,Wunderground v.1.15,2013-06-15 17:02:00,
2013-06-15 13:07:00,87.6,77.9,29.92,WNW,293,2.0,-999.0,73,0.00,,,0.00,Wunderground v.1.15,2013-06-15 17:07:00,
2013-06-15 13:12:00,87.8,77.6,29.92,WNW,293,1.0,-999.0,72,0.00,,,0.00,Wunderground v.1.15,2013-06-15 17:12:00,
2013-06-15 13:17:00,88.0,77.8,29.91,SSW,203,0.0,-999.0,72,0.00,,,0.00,Wunderground v.1.15,2013-06-15 17:17:00,
2013-06-15 13:22:00,88.4,77.8,29.91,SSW,203,1.0,-999.0,71,0.00,,,0.00,Wunderground v.1.15,2013-06-15 17:22:00,
2013-06-15 13:27:00,88.6,77.6,29.91,SW,225,0.0,-999.0,70,0.00,,,0.00,Wunderground v.1.15,2013-06-15 17:27:00,
2013-06-15 13:32:00,89.0,77.9,29.91,SW,225,0.0,-999.0,70,0.00,,,0.00,Wunderground v.1.15,2013-06-15 17:32:00,
2013-06-15 13:37:00,89.5,78.0,29.91,South,180,0.0,-999.0,69,0.00,,,0.00,Wunderground v.1.15,2013-06-15 17:37:00,
2013-06-15 13:42:00,89.7,78.2,29.91,SSW,203,0.0,-999.0,69,0.00,,,0.00,Wunderground v.1.15,2013-06-15 17:42:00,
2013-06-15 13:47:00,89.7,77.7,29.91,SSW,203,1.0,-999.0,68,0.00,,,0.00,Wunderground v.1.15,2013-06-15 17:47:00,
2013-06-15 13:52:00,89.7,77.3,29.91,SSW,203,0.0,-999.0,67,0.00,,,0.00,Wunderground v.1.15,2013-06-15 17:52:00,
2013-06-15 13:57:00,89.9,77.5,29.91,WNW,293,0.0,-999.0,67,0.00,,,0.00,Wunderground v.1.15,2013-06-15 17:57:00,
2013-06-15 14:02:00,89.9,77.5,29.91,WNW,293,0.0,-999.0,67,0.00,,,0.00,Wunderground v.1.15,2013-06-15 18:02:00,
2013-06-15 14:07:00,90.1,77.7,29.91,WNW,293,2.0,-999.0,67,0.00,,,0.00,Wunderground v.1.15,2013-06-15 18:07:00,
2013-06-15 14:12:00,89.9,77.0,29.91,WNW,293,2.0,-999.0,66,0.00,,,0.00,Wunderground v.1.15,2013-06-15 18:12:00,
2013-06-15 14:17:00,89.7,76.8,29.90,WNW,293,1.0,-999.0,66,0.00,,,0.00,Wunderground v.1.15,2013-06-15 18:17:00,
2013-06-15 14:22:00,89.5,76.6,29.90,SW,225,2.0,-999.0,66,0.00,,,0.00,Wunderground v.1.15,2013-06-15 18:22:00,
2013-06-15 14:27:00,89.0,76.2,29.90,SSW,203,1.0,-999.0,66,0.00,,,0.00,Wunderground v.1.15,2013-06-15 18:27:00,
2013-06-15 14:32:00,89.0,76.6,29.90,SSE,158,0.0,-999.0,67,0.00,,,0.00,Wunderground v.1.15,2013-06-15 18:32:00,
2013-06-15 14:37:00,89.3,76.9,29.90,SSE,158,0.0,-999.0,67,0.00,,,0.00,Wunderground v.1.15,2013-06-15 18:37:00,
2013-06-15 14:42:00,89.3,76.4,29.90,NW,315,0.0,-999.0,66,0.00,,,0.00,Wunderground v.1.15,2013-06-15 18:42:00,
2013-06-15 14:47:00,89.5,76.6,29.90,WNW,293,2.0,-999.0,66,0.00,,,0.00,Wunderground v.1.15,2013-06-15 18:47:00,
2013-06-15 14:52:00,89.7,76.4,29.90,WSW,248,0.0,-999.0,65,0.00,,,0.00,Wunderground v.1.15,2013-06-15 18:52:00,
2013-06-15 14:57:00,89.7,76.4,29.90,West,270,1.0,-999.0,65,0.00,,,0.00,Wunderground v.1.15,2013-06-15 18:57:00,
2013-06-15 15:02:00,89.5,76.2,29.90,WSW,248,2.0,-999.0,65,0.00,,,0.00,Wunderground v.1.15,2013-06-15 19:02:00,
2013-06-15 15:07:00,89.3,76.0,29.90,SSW,203,1.0,-999.0,65,0.00,,,0.00,Wunderground v.1.15,2013-06-15 19:07:00,
2013-06-15 15:12:00,89.0,76.2,29.90,WNW,293,1.0,-999.0,66,0.00,,,0.00,Wunderground v.1.15,2013-06-15 19:12:00,
2013-06-15 15:17:00,89.0,76.2,29.90,WNW,293,1.0,-999.0,66,0.00,,,0.00,Wunderground v.1.15,2013-06-15 19:17:00,
2013-06-15 15:22:00,89.0,76.2,29.90,West,270,1.0,-999.0,66,0.00,,,0.00,Wunderground v.1.15,2013-06-15 19:22:00,
2013-06-15 15:27:00,89.3,76.4,29.90,WSW,248,0.0,-999.0,66,0.00,,,0.00,Wunderground v.1.15,2013-06-15 19:27:00,
2013-06-15 15:32:00,89.3,76.4,29.90,West,270,0.0,-999.0,66,0.00,,,0.00,Wunderground v.1.15,2013-06-15 19:32:00,
2013-06-15 15:37:00,89.7,76.8,29.90,NW,315,1.0,-999.0,66,0.00,,,0.00,Wunderground v.1.15,2013-06-15 19:37:00,
2013-06-15 15:42:00,89.9,76.6,29.90,North,0,2.0,-999.0,65,0.00,,,0.00,Wunderground v.1.15,2013-06-15 19:42:00,
2013-06-15 15:47:00,90.1,76.7,29.90,WNW,293,2.0,-999.0,65,0.00,,,0.00,Wunderground v.1.15,2013-06-15 19:47:00,
2013-06-15 15:52:00,90.1,76.7,29.90,SSW,203,1.0,-999.0,65,0.00,,,0.00,Wunderground v.1.15,2013-06-15 19:52:00,
2013-06-15 15:57:00,90.3,76.9,29.90,SSW,203,3.0,-999.0,65,0.00,,,0.00,Wunderground v.1.15,2013-06-15 19:57:00,
2013-06-15 16:02:00,90.5,76.7,29.89,WNW,293,0.0,-999.0,64,0.00,,,0.00,Wunderground v.1.15,2013-06-15 20:02:00,
2013-06-15 16:07:00,90.7,76.8,29.89,WSW,248,1.0,-999.0,64,0.00,,,0.00,Wunderground v.1.15,2013-06-15 20:07:00,
2013-06-15 16:12:00,90.5,76.2,29.89,West,270,2.0,-999.0,63,0.00,,,0.00,Wunderground v.1.15,2013-06-15 20:12:00,
2013-06-15 16:17:00,90.3,76.5,29.89,West,270,1.0,-999.0,64,0.00,,,0.00,Wunderground v.1.15,2013-06-15 20:17:00,
2013-06-15 16:22:00,90.1,75.8,29.89,WNW,293,3.0,-999.0,63,0.00,,,0.00,Wunderground v.1.15,2013-06-15 20:22:00,
2013-06-15 16:27:00,90.1,75.8,29.89,WNW,293,3.0,-999.0,63,0.00,,,0.00,Wunderground v.1.15,2013-06-15 20:27:00,
2013-06-15 16:32:00,89.9,75.6,29.89,WNW,293,2.0,-999.0,63,0.00,,,0.00,Wunderground v.1.15,2013-06-15 20:32:00,
2013-06-15 16:37:00,89.7,75.9,29.89,West,270,2.0,-999.0,64,0.00,,,0.00,Wunderground v.1.15,2013-06-15 20:37:00,
2013-06-15 16:42:00,89.3,75.5,29.89,WNW,293,3.0,-999.0,64,0.00,,,0.00,Wunderground v.1.15,2013-06-15 20:42:00,
2013-06-15 16:47:00,89.0,75.2,29.88,West,270,2.0,-999.0,64,0.00,,,0.00,Wunderground v.1.15,2013-06-15 20:47:00,
2013-06-15 16:52:00,88.8,75.0,29.88,West,270,2.0,-999.0,64,0.00,,,0.00,Wunderground v.1.15,2013-06-15 20:52:00,
2013-06-15 16:57:00,88.6,75.3,29.88,WNW,293,3.0,-999.0,65,0.00,,,0.00,Wunderground v.1.15,2013-06-15 20:57:00,
2013-06-15 17:02:00,88.4,75.1,29.88,West,270,3.0,-999.0,65,0.00,,,0.00,Wunderground v.1.15,2013-06-15 21:02:00,
2013-06-15 17:07:00,88.2,75.4,29.88,NW,315,1.0,-999.0,66,0.00,,,0.00,Wunderground v.1.15,2013-06-15 21:07:00,
2013-06-15 17:12:00,88.2,75.4,29.88,West,270,1.0,-999.0,66,0.00,,,0.00,Wunderground v.1.15,2013-06-15 21:12:00,
2013-06-15 17:17:00,88.4,75.6,29.89,WNW,293,2.0,-999.0,66,0.00,,,0.00,Wunderground v.1.15,2013-06-15 21:17:00,
2013-06-15 17:22:00,88.2,75.4,29.89,WNW,293,2.0,-999.0,66,0.00,,,0.00,Wunderground v.1.15,2013-06-15 21:22:00,
2013-06-15 17:27:00,88.2,75.4,29.89,WNW,293,2.0,-999.0,66,0.00,,,0.00,Wunderground v.1.15,2013-06-15 21:27:00,
2013-06-15 17:32:00,88.2,75.4,29.89,WNW,293,2.0,-999.0,66,0.00,,,0.00,Wunderground v.1.15,2013-06-15 21:32:00,
2013-06-15 17:37:00,88.2,75.4,29.89,WNW,293,1.0,-999.0,66,0.00,,,0.00,Wunderground v.1.15,2013-06-15 21:37:00,
2013-06-15 17:42:00,88.0,75.2,29.89,WNW,293,2.0,-999.0,66,0.00,,,0.00,Wunderground v.1.15,2013-06-15 21:42:00,
2013-06-15 17:47:00,88.0,75.2,29.89,West,270,2.0,-999.0,66,0.00,,,0.00,Wunderground v.1.15,2013-06-15 21:47:00,
2013-06-15 17:52:00,87.8,75.0,29.89,West,270,1.0,-999.0,66,0.00,,,0.00,Wunderground v.1.15,2013-06-15 21:52:00,
2013-06-15 17:57:00,87.6,75.3,29.89,WNW,293,0.0,-999.0,67,0.00,,,0.00,Wunderground v.1.15,2013-06-15 21:57:00,
2013-06-15 18:02:00,87.6,75.3,29.88,West,270,1.0,-999.0,67,0.00,,,0.00,Wunderground v.1.15,2013-06-15 22:02:00,
2013-06-15 18:07:00,87.4,75.1,29.88,SW,225,0.0,-999.0,67,0.00,,,0.00,Wunderground v.1.15,2013-06-15 22:07:00,
2013-06-15 18:12:00,87.4,75.1,29.88,WSW,248,1.0,-999.0,67,0.00,,,0.00,Wunderground v.1.15,2013-06-15 22:12:00,
2013-06-15 18:17:00,87.2,75.3,29.88,WNW,293,2.0,-999.0,68,0.00,,,0.00,Wunderground v.1.15,2013-06-15 22:17:00,
2013-06-15 18:22:00,87.0,75.2,29.88,WNW,293,0.0,-999.0,68,0.00,,,0.00,Wunderground v.1.15,2013-06-15 22:22:00,
2013-06-15 18:27:00,87.0,75.2,29.88,NW,315,0.0,-999.0,68,0.00,,,0.00,Wunderground v.1.15,2013-06-15 22:27:00,
2013-06-15 18:32:00,87.0,75.2,29.89,WNW,293,1.0,-999.0,68,0.00,,,0.00,Wunderground v.1.15,2013-06-15 22:32:00,
2013-06-15 18:37:00,86.7,74.9,29.89,WNW,293,1.0,-999.0,68,0.00,,,0.00,Wunderground v.1.15,2013-06-15 22:37:00,
2013-06-15 18:42:00,86.7,74.9,29.89,WSW,248,1.0,-999.0,68,0.00,,,0.00,Wunderground v.1.15,2013-06-15 22:42:00,
2013-06-15 18:47:00,86.5,75.1,29.89,West,270,1.0,-999.0,69,0.00,,,0.00,Wunderground v.1.15,2013-06-15 22:47:00,
2013-06-15 18:52:00,86.5,75.1,29.89,North,0,1.0,-999.0,69,0.00,,,0.00,Wunderground v.1.15,2013-06-15 22:52:00,
2013-06-15 18:57:00,86.5,75.1,29.89,North,0,1.0,-999.0,69,0.00,,,0.00,Wunderground v.1.15,2013-06-15 22:57:00,
2013-06-15 19:02:00,86.5,74.7,29.90,NW,315,1.0,-999.0,68,0.00,,,0.00,Wunderground v.1.15,2013-06-15 23:02:00,
2013-06-15 19:07:00,86.5,74.7,29.90,WNW,293,0.0,-999.0,68,0.00,,,0.00,Wunderground v.1.15,2013-06-15 23:07:00,
2013-06-15 19:12:00,86.5,74.7,29.90,West,270,0.0,-999.0,68,0.00,,,0.00,Wunderground v.1.15,2013-06-15 23:12:00,
2013-06-15 19:17:00,86.5,74.7,29.91,SW,225,0.0,-999.0,68,0.00,,,0.00,Wunderground v.1.15,2013-06-15 23:17:00,
2013-06-15 19:22:00,86.5,74.7,29.91,SW,225,0.0,-999.0,68,0.00,,,0.00,Wunderground v.1.15,2013-06-15 23:22:00,
2013-06-15 19:27:00,86.7,74.9,29.91,N/A,-737280,0.0,-999.0,68,0.00,,,0.00,Wunderground v.1.15,2013-06-15 23:27:00,
2013-06-15 19:32:00,86.7,74.9,29.91,N/A,-737280,0.0,-999.0,68,0.00,,,0.00,Wunderground v.1.15,2013-06-15 23:32:00,
2013-06-15 19:37:00,86.7,74.9,29.91,SW,225,0.0,-999.0,68,0.00,,,0.00,Wunderground v.1.15,2013-06-15 23:37:00,
2013-06-15 19:42:00,86.5,74.7,29.91,WSW,248,0.0,-999.0,68,0.00,,,0.00,Wunderground v.1.15,2013-06-15 23:42:00,
2013-06-15 19:47:00,86.3,74.5,29.90,WNW,293,0.0,-999.0,68,0.00,,,0.00,Wunderground v.1.15,2013-06-15 23:47:00,
2013-06-15 19:52:00,86.1,74.7,29.90,WNW,293,0.0,-999.0,69,0.00,,,0.00,Wunderground v.1.15,2013-06-15 23:52:00,
2013-06-15 19:57:00,86.1,74.7,29.90,WNW,293,0.0,-999.0,69,0.00,,,0.00,Wunderground v.1.15,2013-06-15 23:57:00,
2013-06-15 20:02:00,85.9,74.5,29.91,N/A,-737280,0.0,-999.0,69,0.00,,,0.00,Wunderground v.1.15,2013-06-16 00:02:00,
2013-06-15 20:07:00,85.7,74.4,29.91,N/A,-737280,0.0,-999.0,69,0.00,,,0.00,Wunderground v.1.15,2013-06-16 00:07:00,
2013-06-15 20:12:00,85.5,74.2,29.91,N/A,-737280,0.0,-999.0,69,0.00,,,0.00,Wunderground v.1.15,2013-06-16 00:12:00,
2013-06-15 20:17:00,85.5,74.2,29.92,N/A,-737280,0.0,-999.0,69,0.00,,,0.00,Wunderground v.1.15,2013-06-16 00:17:00,
2013-06-15 20:22:00,85.5,74.2,29.92,N/A,-737280,0.0,-999.0,69,0.00,,,0.00,Wunderground v.1.15,2013-06-16 00:22:00,
2013-06-15 20:27:00,85.3,74.4,29.92,N/A,-737280,0.0,-999.0,70,0.00,,,0.00,Wunderground v.1.15,2013-06-16 00:27:00,
2013-06-15 20:39:00,85.1,74.2,29.91,N/A,-737280,0.0,-999.0,70,0.00,,,0.00,Wunderground v.1.15,2013-06-16 00:39:00,
2013-06-15 20:44:00,84.7,73.8,29.91,NW,304,0.0,0.0,70,0.00,,,0.00,Wunderground v.1.15,2013-06-16 00:44:00,
2013-06-15 20:49:00,84.7,74.3,29.90,NW,304,0.0,0.0,71,0.00,,,0.00,Wunderground v.1.15,2013-06-16 00:49:00,
2013-06-15 20:54:00,84.3,73.9,29.90,NW,304,0.0,0.0,71,0.00,,,0.00,Wunderground v.1.15,2013-06-16 00:54:00,
2013-06-15 20:59:00,84.1,73.7,29.90,NW,304,0.0,0.0,71,0.00,,,0.00,Wunderground v.1.15,2013-06-16 00:59:00,
2013-06-15 21:04:00,84.0,73.6,29.90,NW,304,0.0,0.0,71,0.00,,,0.00,Wunderground v.1.15,2013-06-16 01:04:00,
2013-06-15 21:09:00,83.8,73.8,29.90,NW,304,0.0,0.0,72,0.00,,,0.00,Wunderground v.1.15,2013-06-16 01:09:00,
2013-06-15 21:14:00,83.6,73.6,29.90,NW,304,0.0,0.0,72,0.00,,,0.00,Wunderground v.1.15,2013-06-16 01:14:00,
2013-06-15 21:19:00,83.4,73.4,29.91,NW,304,0.0,0.0,72,0.00,,,0.00,Wunderground v.1.15,2013-06-16 01:19:00,
2013-06-15 21:24:00,83.2,73.2,29.91,NW,304,0.0,0.0,72,0.00,,,0.00,Wunderground v.1.15,2013-06-16 01:24:00,
2013-06-15 21:29:00,83.0,73.4,29.91,NW,305,0.0,0.0,73,0.00,,,0.00,Wunderground v.1.15,2013-06-16 01:29:00,
2013-06-15 21:34:00,83.0,73.4,29.92,ENE,69,0.0,0.0,73,0.00,,,0.00,Wunderground v.1.15,2013-06-16 01:34:00,
2013-06-15 21:39:00,82.8,73.3,29.92,East,95,0.0,5.0,73,0.00,,,0.00,Wunderground v.1.15,2013-06-16 01:39:00,
2013-06-15 21:44:00,82.2,72.7,29.92,East,83,0.0,8.0,73,0.00,,,0.00,Wunderground v.1.15,2013-06-16 01:44:00,
2013-06-15 21:49:00,81.8,72.3,29.92,South,174,0.0,8.0,73,0.00,,,0.00,Wunderground v.1.15,2013-06-16 01:49:00,
2013-06-15 21:54:00,81.6,71.7,29.92,ENE,76,0.0,7.0,72,0.00,,,0.00,Wunderground v.1.15,2013-06-16 01:54:00,
2013-06-15 22:00:00,81.2,71.7,29.92,East,79,0.0,7.0,73,0.00,,,0.00,Wunderground v.1.15,2013-06-16 02:00:00,
2013-06-15 22:05:00,81.1,71.6,29.92,ENE,78,2.0,2.0,73,0.00,,,0.00,Wunderground v.1.15,2013-06-16 02:05:00,
2013-06-15 22:10:00,81.1,71.6,29.92,East,79,0.0,0.0,73,0.00,,,0.00,Wunderground v.1.15,2013-06-16 02:10:00,
2013-06-15 22:15:00,80.9,71.4,29.92,ENE,78,0.0,0.0,73,0.00,,,0.00,Wunderground v.1.15,2013-06-16 02:15:00,
2013-06-15 22:20:00,80.7,71.2,29.92,East,100,3.0,3.0,73,0.00,,,0.00,Wunderground v.1.15,2013-06-16 02:20:00,
2013-06-15 22:25:00,80.5,71.4,29.92,ESE,113,0.0,6.0,74,0.00,,,0.00,Wunderground v.1.15,2013-06-16 02:25:00,
2013-06-15 22:30:00,80.3,71.3,29.93,ENE,68,0.0,0.0,74,0.00,,,0.00,Wunderground v.1.15,2013-06-16 02:30:00,
2013-06-15 22:35:00,80.3,71.3,29.93,East,92,0.0,5.0,74,0.00,,,0.00,Wunderground v.1.15,2013-06-16 02:35:00,
2013-06-15 22:40:00,80.3,71.6,29.93,East,93,3.0,4.0,75,0.00,,,0.00,Wunderground v.1.15,2013-06-16 02:40:00,
2013-06-15 22:45:00,80.1,71.5,29.93,East,83,1.0,6.0,75,0.00,,,0.00,Wunderground v.1.15,2013-06-16 02:45:00,
2013-06-15 22:50:00,80.1,71.8,29.93,East,88,0.0,1.0,76,0.00,,,0.00,Wunderground v.1.15,2013-06-16 02:50:00,
2013-06-15 22:55:00,80.1,71.8,29.93,East,79,0.0,5.0,76,0.00,,,0.00,Wunderground v.1.15,2013-06-16 02:55:00,
2013-06-15 23:00:00,80.1,71.8,29.93,East,79,0.0,1.0,76,0.00,,,0.00,Wunderground v.1.15,2013-06-16 03:00:00,
2013-06-15 23:05:00,79.9,71.7,29.93,ENE,75,0.0,1.0,76,0.00,,,0.00,Wunderground v.1.15,2013-06-16 03:05:00,
2013-06-15 23:10:00,79.9,71.7,29.93,East,88,5.0,5.0,76,0.00,,,0.00,Wunderground v.1.15,2013-06-16 03:10:00,
2013-06-15 23:15:00,79.9,71.7,29.94,East,80,5.0,7.0,76,0.00,,,0.00,Wunderground v.1.15,2013-06-16 03:15:00,
2013-06-15 23:20:00,79.8,71.9,29.94,East,80,0.0,2.0,77,0.00,,,0.00,Wunderground v.1.15,2013-06-16 03:20:00,
2013-06-15 23:25:00,79.8,71.9,29.94,East,80,0.0,2.0,77,0.00,,,0.00,Wunderground v.1.15,2013-06-16 03:25:00,
2013-06-15 23:30:00,79.8,71.9,29.94,East,90,1.0,1.0,77,0.00,,,0.00,Wunderground v.1.15,2013-06-16 03:30:00,
2013-06-15 23:35:00,79.6,72.1,29.94,ENE,78,0.0,6.0,78,0.00,,,0.00,Wunderground v.1.15,2013-06-16 03:35:00,
2013-06-15 23:40:00,79.4,71.9,29.94,East,88,3.0,3.0,78,0.00,,,0.00,Wunderground v.1.15,2013-06-16 03:40:00,
2013-06-15 23:45:00,79.4,71.9,29.95,East,79,0.0,6.0,78,0.00,,,0.00,Wunderground v.1.15,2013-06-16 03:45:00,
2013-06-15 23:50:00,79.4,71.9,29.95,East,79,0.0,1.0,78,0.00,,,0.00,Wunderground v.1.15,2013-06-16 03:50:00,
2013-06-15 23:55:00,79.4,71.9,29.95,East,80,0.0,1.0,78,0.00,,,0.00,Wunderground v.1.15,2013-06-16 03:55:00,